Time;durP1;ratioP1;P1;durP2;ratioP2;P2;SDS_P1;SDS_P2;PMS_P1;PMS_P2;Temp;Humidity;BMP_temperature;BMP_pressure;BME280_temperature;BME280_humidity;BME280_pressure;Samples;Min_cycle;Max_cycle;Signal;HPM_P1;HPM_P2
2021/10/02 00:34:43;;;;;;;8.10;5.53;;;14.10;99.90;;;;;;5065169;28;20047;-75
2021/10/02 00:45:32;;;;;;;8.13;6.65;;;14.00;99.90;;;;;;5060328;28;20258;-75
2021/10/02 00:47:59;;;;;;;6.00;5.32;;;14.00;99.90;;;;;;5060649;28;20575;-75
2021/10/02 00:50:26;;;;;;;9.00;6.97;;;14.00;99.90;;;;;;5030570;28;20055;-75
2021/10/02 00:52:52;;;;;;;6.70;6.05;;;14.00;99.90;;;;;;5064803;28;20046;-75
2021/10/02 00:55:18;;;;;;;8.07;6.57;;;14.00;99.90;;;;;;5049168;28;20048;-75
2021/10/02 00:57:45;;;;;;;8.07;6.63;;;14.00;99.90;;;;;;5078971;28;20583;-76
2021/10/02 01:00:12;;;;;;;7.82;6.53;;;14.10;99.90;;;;;;5084208;28;20036;-75
2021/10/02 01:03:24;;;;;;;8.07;6.90;;;14.00;99.90;;;;;;5029299;28;20047;-75
2021/10/02 01:05:56;;;;;;;8.38;6.63;;;14.10;99.90;;;;;;5047598;28;20044;-75
2021/10/02 01:08:55;;;;;;;8.77;6.65;;;14.10;99.90;;;;;;5063305;28;20369;-76
2021/10/02 01:11:36;;;;;;;8.95;7.15;;;14.10;99.90;;;;;;5082979;28;21563;-77
2021/10/02 01:14:21;;;;;;;13.45;8.18;;;14.10;99.90;;;;;;5065132;28;21568;-76
2021/10/02 01:16:51;;;;;;;8.13;7.32;;;14.10;99.90;;;;;;5048187;28;20040;-75
2021/10/02 01:19:32;;;;;;;9.00;8.10;;;14.10;99.90;;;;;;5047618;28;20496;-75
2021/10/02 01:22:42;;;;;;;10.18;8.80;;;14.10;99.90;;;;;;5046975;28;20040;-75
2021/10/02 01:25:28;;;;;;;14.68;10.63;;;14.10;99.90;;;;;;5035071;28;20493;-75
2021/10/02 01:28:06;;;;;;;10.18;9.07;;;14.10;99.90;;;;;;5079708;28;20040;-75
2021/10/02 01:34:07;;;;;;;11.20;8.82;;;14.10;99.90;;;;;;5043944;28;20039;-75
2021/10/02 01:37:14;;;;;;;9.93;8.13;;;14.10;99.90;;;;;;5059453;28;20051;-75
2021/10/02 01:48:01;;;;;;;10.93;8.55;;;14.10;99.90;;;;;;5061871;28;20407;-75
2021/10/02 01:50:31;;;;;;;12.40;8.95;;;14.10;99.90;;;;;;5058911;28;20036;-75
2021/10/02 01:53:02;;;;;;;13.07;9.32;;;14.10;99.90;;;;;;5070759;28;20032;-75
2021/10/02 01:55:30;;;;;;;12.65;10.55;;;14.10;99.90;;;;;;5059583;28;20511;-75
2021/10/02 01:58:01;;;;;;;12.45;10.10;;;14.10;99.90;;;;;;5046435;28;20055;-75
2021/10/02 02:00:30;;;;;;;12.77;9.27;;;14.10;99.90;;;;;;5062508;28;20382;-75
2021/10/02 02:03:00;;;;;;;10.20;8.95;;;14.10;99.90;;;;;;5078778;28;20044;-76
2021/10/02 02:05:28;;;;;;;12.10;9.70;;;14.10;99.90;;;;;;5063146;28;20048;-77
2021/10/02 02:08:00;;;;;;;13.43;9.48;;;14.10;99.90;;;;;;5057291;28;20044;-76
2021/10/02 02:10:27;;;;;;;9.43;8.45;;;14.20;99.90;;;;;;5077259;28;20036;-76
2021/10/02 02:12:57;;;;;;;13.82;12.40;;;14.10;99.90;;;;;;5078093;28;20028;-76
2021/10/02 02:15:30;;;;;;;16.05;12.10;;;14.20;99.90;;;;;;5053475;28;20037;-76
2021/10/02 02:18:01;;;;;;;;;;;14.20;99.90;;;;;;5058792;28;20056;-76
2021/10/02 02:20:32;;;;;;;15.82;12.35;;;14.20;99.90;;;;;;5060373;28;19919;-76
2021/10/02 02:23:00;;;;;;;16.45;11.15;;;14.20;99.90;;;;;;5078173;28;20031;-75
2021/10/02 02:25:28;;;;;;;14.25;11.32;;;14.20;99.90;;;;;;5077919;28;20040;-76
2021/10/02 02:27:55;;;;;;;12.80;10.88;;;14.10;99.90;;;;;;5042968;28;20036;-76
2021/10/02 02:30:22;;;;;;;10.18;8.55;;;14.10;99.90;;;;;;5076181;28;20027;-76
2021/10/02 02:32:50;;;;;;;10.45;9.18;;;14.20;99.90;;;;;;5047018;28;20058;-76
2021/10/02 02:35:22;;;;;;;15.15;10.73;;;14.20;99.90;;;;;;5058526;28;20392;-75
2021/10/02 02:37:50;;;;;;;16.08;10.73;;;14.10;99.90;;;;;;5057567;28;20047;-75
2021/10/02 02:40:16;;;;;;;12.10;8.35;;;14.20;99.90;;;;;;5060396;28;20040;-75
2021/10/02 02:42:43;;;;;;;13.50;9.35;;;14.20;99.90;;;;;;5075088;28;20058;-75
2021/10/02 02:45:12;;;;;;;13.70;10.18;;;14.20;99.90;;;;;;5041458;28;20043;-75
2021/10/02 02:47:53;;;;;;;12.43;10.30;;;14.20;99.90;;;;;;5054511;28;20051;-75
2021/10/02 02:50:43;;;;;;;14.38;9.68;;;14.20;99.90;;;;;;5040427;28;20408;-75
2021/10/02 02:53:16;;;;;;;14.25;10.13;;;14.20;99.90;;;;;;5061685;28;20055;-75
2021/10/02 02:55:47;;;;;;;13.60;10.15;;;14.20;99.90;;;;;;5056225;28;20043;-75
2021/10/02 02:58:17;;;;;;;14.75;11.50;;;14.20;99.90;;;;;;5041260;28;20028;-75
2021/10/02 03:00:55;;;;;;;13.90;9.98;;;14.10;99.90;;;;;;5034382;28;20044;-74
2021/10/02 03:03:27;;;;;;;13.95;10.32;;;14.20;99.90;;;;;;5056236;28;20032;-75
2021/10/02 03:06:03;;;;;;;15.65;11.27;;;14.20;99.90;;;;;;5073877;28;20503;-76
2021/10/02 03:08:35;;;;;;;14.23;10.70;;;14.20;99.90;;;;;;5059358;28;20615;-76
2021/10/02 03:11:03;;;;;;;13.83;11.00;;;14.20;99.90;;;;;;5057526;28;20032;-75
2021/10/02 03:13:33;;;;;;;12.63;11.15;;;14.20;99.90;;;;;;5064531;28;20640;-76
2021/10/02 03:16:03;;;;;;;12.10;9.63;;;14.20;99.90;;;;;;5082913;28;20049;-76
2021/10/02 03:18:35;;;;;;;17.40;10.05;;;14.20;99.90;;;;;;5044984;28;20417;-76
2021/10/02 03:21:02;;;;;;;14.52;10.07;;;14.20;99.90;;;;;;5063259;28;20515;-76
2021/10/02 03:23:29;;;;;;;14.32;10.80;;;14.20;99.90;;;;;;5046281;28;20040;-76
2021/10/02 03:25:56;;;;;;;14.88;10.50;;;14.20;99.90;;;;;;5080655;28;20043;-76
2021/10/02 03:28:23;;;;;;;15.20;10.00;;;14.20;99.90;;;;;;5044313;28;20048;-76
2021/10/02 03:30:50;;;;;;;14.95;10.52;;;14.20;99.90;;;;;;5082063;28;20036;-76
2021/10/02 03:33:20;;;;;;;11.57;10.38;;;14.20;99.90;;;;;;5044831;28;20051;-76
2021/10/02 03:35:47;;;;;;;19.42;13.63;;;14.20;99.90;;;;;;5046775;28;20044;-76
2021/10/02 03:38:14;;;;;;;14.80;12.40;;;14.20;99.90;;;;;;5046744;28;20497;-76
2021/10/02 03:40:40;;;;;;;13.50;10.02;;;14.10;99.90;;;;;;5064212;28;20489;-76
2021/10/02 03:43:06;;;;;;;17.02;12.23;;;14.10;99.90;;;;;;5082178;28;20039;-76
2021/10/02 03:45:36;;;;;;;18.25;13.27;;;14.10;99.90;;;;;;5063113;28;20050;-76
2021/10/02 03:48:03;;;;;;;13.82;12.40;;;14.10;99.90;;;;;;5048039;28;20047;-76
2021/10/02 03:50:31;;;;;;;17.90;11.95;;;14.10;99.90;;;;;;5085853;28;20047;-76
2021/10/02 03:52:57;;;;;;;15.70;12.68;;;14.10;99.90;;;;;;5081732;28;20033;-76
2021/10/02 03:55:24;;;;;;;16.95;11.95;;;14.10;99.90;;;;;;5044278;28;20040;-76
2021/10/02 03:57:51;;;;;;;15.43;11.27;;;14.10;99.90;;;;;;5043960;28;20052;-76
2021/10/02 04:00:17;;;;;;;19.00;13.73;;;14.10;99.90;;;;;;5047972;28;20052;-76
2021/10/02 04:02:44;;;;;;;13.65;12.05;;;14.10;99.90;;;;;;5077249;28;20044;-76
2021/10/02 04:05:10;;;;;;;12.93;9.98;;;14.10;99.90;;;;;;5044217;28;20036;-76
2021/10/02 04:07:37;;;;;;;15.02;11.70;;;14.10;99.90;;;;;;5042465;28;20059;-76
2021/10/02 04:10:09;;;;;;;13.57;11.13;;;14.10;99.90;;;;;;5029855;28;20508;-76
2021/10/02 04:12:35;;;;;;;17.13;13.30;;;14.10;99.90;;;;;;5045061;28;20067;-76
2021/10/02 04:15:02;;;;;;;18.15;13.50;;;14.10;99.90;;;;;;5063089;28;20035;-76
2021/10/02 04:17:28;;;;;;;15.68;11.98;;;14.10;99.90;;;;;;5047742;28;20056;-76
2021/10/02 04:19:54;;;;;;;22.00;14.23;;;14.10;99.90;;;;;;5050943;28;20500;-76
2021/10/02 04:22:21;;;;;;;19.75;14.10;;;14.00;99.90;;;;;;5068319;28;20396;-76
2021/10/02 04:24:48;;;;;;;15.90;13.38;;;14.10;99.90;;;;;;5085895;28;20106;-76
2021/10/02 04:27:14;;;;;;;19.92;13.57;;;14.00;99.90;;;;;;5070474;28;20063;-77
2021/10/02 04:29:41;;;;;;;18.73;14.85;;;14.00;99.90;;;;;;5053300;28;20028;-76
2021/10/02 04:32:07;;;;;;;15.68;12.88;;;13.90;99.90;;;;;;5051516;28;20039;-77
2021/10/02 04:34:34;;;;;;;25.25;18.92;;;13.90;99.90;;;;;;5041118;28;20051;-76
2021/10/02 04:37:01;;;;;;;22.20;16.75;;;13.90;99.90;;;;;;5074318;28;20056;-76
2021/10/02 04:39:28;;;;;;;19.55;15.23;;;13.90;99.90;;;;;;5048261;28;20059;-76
2021/10/02 04:41:54;;;;;;;20.98;14.95;;;13.80;99.90;;;;;;5065820;28;20043;-76
2021/10/02 04:44:21;;;;;;;16.63;14.88;;;13.90;99.90;;;;;;5026951;28;20054;-76
2021/10/02 04:46:48;;;;;;;22.15;16.27;;;13.90;99.90;;;;;;5067227;28;20048;-76
2021/10/02 04:49:14;;;;;;;18.35;15.48;;;13.90;99.90;;;;;;5033473;28;20515;-76
2021/10/02 04:51:42;;;;;;;27.55;16.40;;;13.90;99.90;;;;;;5066973;28;20032;-77
2021/10/02 04:54:10;;;;;;;22.13;16.13;;;13.90;99.90;;;;;;5049542;28;20036;-76
2021/10/02 04:56:37;;;;;;;22.08;16.20;;;13.90;99.90;;;;;;5042313;28;20048;-76
2021/10/02 04:59:04;;;;;;;18.00;14.27;;;13.90;99.90;;;;;;5053415;28;20564;-76
2021/10/02 05:01:30;;;;;;;15.23;13.63;;;13.90;99.90;;;;;;5036757;28;20036;-76
2021/10/02 05:03:58;;;;;;;15.10;12.60;;;13.90;99.90;;;;;;5045639;28;20059;-76
2021/10/02 05:06:25;;;;;;;18.90;15.25;;;13.90;99.90;;;;;;5055973;28;20489;-76
2021/10/02 05:08:52;;;;;;;21.30;15.73;;;13.90;99.90;;;;;;5036266;28;20036;-76
2021/10/02 05:11:18;;;;;;;20.13;14.90;;;13.90;99.90;;;;;;5037620;28;20056;-76
2021/10/02 05:13:45;;;;;;;19.45;14.68;;;13.90;99.90;;;;;;5058916;28;20068;-76
2021/10/02 05:16:11;;;;;;;30.70;22.75;;;13.90;99.90;;;;;;5075411;28;20035;-76
2021/10/02 05:18:37;;;;;;;24.85;18.65;;;13.90;99.90;;;;;;5057681;28;20035;-76
2021/10/02 05:21:04;;;;;;;15.77;14.13;;;13.90;99.90;;;;;;5042606;28;20063;-77
2021/10/02 05:23:30;;;;;;;14.13;12.63;;;13.80;99.90;;;;;;5057979;28;20035;-76
2021/10/02 05:25:57;;;;;;;17.77;13.65;;;13.90;99.90;;;;;;5040421;28;20032;-76
2021/10/02 05:28:24;;;;;;;14.90;12.75;;;13.80;99.90;;;;;;5075770;28;20535;-76
2021/10/02 05:30:51;;;;;;;19.08;14.45;;;13.80;99.90;;;;;;5065629;28;20044;-76
2021/10/02 05:33:18;;;;;;;18.08;14.50;;;13.80;99.90;;;;;;5059014;28;20043;-76
2021/10/02 05:35:45;;;;;;;17.08;13.43;;;13.80;99.90;;;;;;5058625;28;20051;-76
2021/10/02 05:38:12;;;;;;;17.15;13.98;;;13.70;99.90;;;;;;5078376;28;20059;-76
2021/10/02 05:40:38;;;;;;;15.82;12.88;;;13.70;99.90;;;;;;5062225;28;20036;-76
2021/10/02 05:43:05;;;;;;;15.63;13.32;;;13.60;99.90;;;;;;5044499;28;20039;-76
2021/10/02 05:45:31;;;;;;;14.13;11.93;;;13.60;99.90;;;;;;5060837;28;20035;-76
2021/10/02 05:47:58;;;;;;;12.32;10.57;;;13.60;99.90;;;;;;5076373;28;20052;-76
2021/10/02 05:50:24;;;;;;;11.13;9.98;;;13.60;99.90;;;;;;5059721;28;20059;-76
2021/10/02 05:52:51;;;;;;;21.38;14.55;;;13.60;99.90;;;;;;5062007;28;20043;-76
2021/10/02 05:55:17;;;;;;;13.75;11.63;;;13.60;99.90;;;;;;5043559;28;20404;-76
2021/10/02 05:57:44;;;;;;;14.35;11.55;;;13.60;99.90;;;;;;5042818;28;20048;-76
2021/10/02 06:00:11;;;;;;;14.63;11.43;;;13.50;99.90;;;;;;5083300;28;20397;-76
2021/10/02 06:02:40;;;;;;;11.15;9.75;;;13.40;99.90;;;;;;5045886;28;20048;-75
2021/10/02 06:05:07;;;;;;;13.35;10.15;;;13.30;99.90;;;;;;5044803;28;20044;-75
2021/10/02 06:07:33;;;;;;;17.08;9.95;;;13.20;99.90;;;;;;5046194;28;20048;-76
2021/10/02 06:10:00;;;;;;;9.60;8.60;;;13.20;99.90;;;;;;5063047;28;20047;-75
2021/10/02 06:12:26;;;;;;;10.95;9.45;;;13.10;99.90;;;;;;5061444;28;20516;-75
2021/10/02 06:14:53;;;;;;;12.52;9.75;;;13.10;99.90;;;;;;5062203;28;20421;-75
2021/10/02 06:17:19;;;;;;;12.68;10.50;;;13.00;99.90;;;;;;5031916;28;20047;-75
2021/10/02 06:19:45;;;;;;;11.40;9.68;;;13.00;99.90;;;;;;5063344;28;20055;-75
2021/10/02 06:22:12;;;;;;;12.73;10.38;;;13.00;99.90;;;;;;5047267;28;20048;-75
2021/10/02 06:24:38;;;;;;;15.15;10.68;;;12.90;99.90;;;;;;5082365;28;20044;-75
2021/10/02 06:27:05;;;;;;;15.27;11.00;;;13.00;99.90;;;;;;5067633;28;20064;-75
2021/10/02 06:29:31;;;;;;;14.27;11.57;;;13.10;99.90;;;;;;5081659;28;20036;-75
2021/10/02 06:31:58;;;;;;;15.07;10.63;;;13.10;99.90;;;;;;5065579;28;20041;-75
2021/10/02 06:34:24;;;;;;;11.30;10.00;;;13.20;99.90;;;;;;5043389;28;20039;-75
2021/10/02 06:36:50;;;;;;;12.77;8.63;;;13.30;99.90;;;;;;5083756;28;20028;-75
2021/10/02 06:39:17;;;;;;;12.02;9.60;;;13.30;99.90;;;;;;5048291;28;20044;-75
2021/10/02 06:41:43;;;;;;;8.30;7.38;;;13.30;99.90;;;;;;5057006;28;20051;-75
2021/10/02 06:44:11;;;;;;;10.40;8.55;;;13.40;99.90;;;;;;5043240;28;20726;-76
2021/10/02 06:46:37;;;;;;;12.80;9.50;;;13.40;99.90;;;;;;5025598;28;20049;-75
2021/10/02 06:49:04;;;;;;;14.70;11.38;;;13.40;99.90;;;;;;5056120;28;20044;-76
2021/10/02 06:51:30;;;;;;;15.13;10.75;;;13.50;99.90;;;;;;5055081;28;20063;-76
2021/10/02 06:53:57;;;;;;;15.65;10.75;;;13.40;99.90;;;;;;5033410;28;20377;-77
2021/10/02 06:56:23;;;;;;;17.50;11.85;;;13.50;99.90;;;;;;5074930;28;20390;-78
2021/10/02 06:58:50;;;;;;;14.40;11.52;;;13.60;99.90;;;;;;5039897;28;20040;-76
2021/10/02 07:01:16;;;;;;;13.90;11.32;;;13.60;99.90;;;;;;5039253;28;20040;-76
2021/10/02 07:03:43;;;;;;;16.45;12.00;;;13.70;99.90;;;;;;5052789;28;20035;-76
2021/10/02 07:06:09;;;;;;;16.60;12.07;;;13.80;99.90;;;;;;5058470;28;20044;-76
2021/10/02 07:08:35;;;;;;;13.90;10.15;;;13.90;99.90;;;;;;5043806;28;20578;-76
2021/10/02 07:11:02;;;;;;;13.48;10.98;;;14.00;99.90;;;;;;5061449;28;20040;-76
2021/10/02 07:13:28;;;;;;;15.23;12.13;;;14.10;99.90;;;;;;5046191;28;20062;-75
2021/10/02 07:15:55;;;;;;;18.73;14.20;;;14.20;99.90;;;;;;5047099;28;20043;-76
2021/10/02 07:18:21;;;;;;;16.27;13.15;;;14.30;99.90;;;;;;5045072;28;20066;-76
2021/10/02 07:20:47;;;;;;;17.10;12.90;;;14.50;99.90;;;;;;5032022;28;20032;-76
2021/10/02 07:23:16;;;;;;;13.80;10.68;;;14.60;99.90;;;;;;5046555;28;20059;-76
2021/10/02 07:25:42;;;;;;;15.77;9.98;;;14.70;99.90;;;;;;5062255;28;20336;-76
2021/10/02 07:28:09;;;;;;;12.40;10.23;;;14.70;99.90;;;;;;5035215;28;20066;-76
2021/10/02 07:30:35;;;;;;;17.33;12.00;;;14.80;99.90;;;;;;5062099;28;20024;-76
2021/10/02 07:33:02;;;;;;;14.30;12.27;;;14.80;99.90;;;;;;5050612;28;20040;-76
2021/10/02 07:35:28;;;;;;;14.23;11.90;;;14.90;99.90;;;;;;5063279;28;20043;-76
2021/10/02 07:37:55;;;;;;;16.88;12.70;;;15.00;99.90;;;;;;5057256;28;20048;-76
2021/10/02 07:40:21;;;;;;;19.80;13.13;;;15.00;99.90;;;;;;5074371;28;20046;-76
2021/10/02 07:42:55;;;;;;;19.73;12.25;;;15.00;99.90;;;;;;5077302;28;20044;-76
2021/10/02 07:45:23;;;;;;;14.18;9.88;;;15.00;99.90;;;;;;5048870;28;20028;-76
2021/10/02 07:47:55;;;;;;;16.17;11.80;;;15.00;99.90;;;;;;5075788;28;20059;-76
2021/10/02 07:50:23;;;;;;;16.38;10.85;;;15.00;99.90;;;;;;5046821;28;20404;-76
2021/10/02 07:52:50;;;;;;;15.13;10.70;;;15.00;99.90;;;;;;5077621;28;20035;-75
2021/10/02 07:55:17;;;;;;;16.35;11.05;;;15.00;99.90;;;;;;5043137;28;20059;-76
2021/10/02 07:57:45;;;;;;;14.57;11.63;;;15.00;99.90;;;;;;5043481;28;20048;-79
2021/10/02 08:00:15;;;;;;;16.17;12.25;;;15.10;99.90;;;;;;5029578;28;20071;-73
2021/10/02 08:02:55;;;;;;;13.80;10.38;;;15.10;99.90;;;;;;5062887;28;20039;-76
2021/10/02 08:05:22;;;;;;;14.57;10.38;;;15.30;99.90;;;;;;5081811;28;20035;-75
2021/10/02 08:07:49;;;;;;;15.23;10.57;;;15.40;99.90;;;;;;5079954;28;20047;-75
2021/10/02 08:10:20;;;;;;;13.98;11.15;;;15.50;99.90;;;;;;5045948;28;20044;-76
2021/10/02 08:12:48;;;;;;;13.52;10.18;;;15.60;99.90;;;;;;5060415;28;20032;-75
2021/10/02 08:15:15;;;;;;;16.23;11.65;;;15.70;99.90;;;;;;5067415;28;20036;-73
2021/10/02 08:17:44;;;;;;;15.20;10.98;;;15.80;99.90;;;;;;5064737;28;20040;-74
2021/10/02 08:20:16;;;;;;;11.75;9.88;;;15.80;99.90;;;;;;5085953;28;20043;-75
2021/10/02 08:22:44;;;;;;;;;;;15.80;99.90;;;;;;5085520;28;20043;-76
2021/10/02 08:25:12;;;;;;;13.48;10.25;;;15.80;99.90;;;;;;5068136;28;19912;-74
2021/10/02 08:27:40;;;;;;;11.90;9.43;;;15.80;99.90;;;;;;5088983;28;20524;-74
2021/10/02 08:30:08;;;;;;;10.23;9.20;;;15.80;99.90;;;;;;5090063;28;20042;-74
2021/10/02 08:32:36;;;;;;;11.82;9.00;;;15.80;99.90;;;;;;5061740;28;20033;-74
2021/10/02 08:35:07;;;;;;;11.02;8.73;;;15.80;99.90;;;;;;5074936;28;20032;-74
2021/10/02 08:37:34;;;;;;;11.63;8.15;;;15.80;99.90;;;;;;5044010;28;20044;-75
2021/10/02 08:40:00;;;;;;;15.77;10.68;;;15.90;99.90;;;;;;5032235;28;20043;-75
2021/10/02 08:42:27;;;;;;;12.18;8.70;;;15.90;99.90;;;;;;5060614;28;20044;-75
2021/10/02 08:44:55;;;;;;;8.70;7.80;;;16.00;99.90;;;;;;5065451;28;20063;-75
2021/10/02 08:47:22;;;;;;;9.57;7.50;;;16.00;99.90;;;;;;5062449;28;20465;-76
2021/10/02 08:49:50;;;;;;;10.80;7.78;;;16.10;99.90;;;;;;5552012;22;20318;-75
2021/10/02 08:52:20;;;;;;;12.48;7.40;;;16.20;99.90;;;;;;5058448;28;20044;-76
2021/10/02 08:54:54;;;;;;;9.38;7.05;;;16.30;99.90;;;;;;5087230;28;20036;-75
2021/10/02 08:57:25;;;;;;;14.25;6.93;;;16.30;99.90;;;;;;5084438;28;20042;-76
2021/10/02 08:59:55;;;;;;;9.00;5.70;;;16.50;99.90;;;;;;5097252;28;20035;-74
2021/10/02 09:02:23;;;;;;;9.60;7.28;;;16.50;99.90;;;;;;5099139;28;20556;-72
2021/10/02 09:04:51;;;;;;;9.30;5.95;;;16.50;99.90;;;;;;5098888;28;20031;-73
2021/10/02 09:07:20;;;;;;;14.68;8.50;;;16.40;99.90;;;;;;5082147;28;20040;-74
2021/10/02 09:09:54;;;;;;;11.73;6.55;;;16.40;99.90;;;;;;5053301;28;20074;-74
2021/10/02 09:12:22;;;;;;;15.73;9.55;;;16.40;99.90;;;;;;5099935;28;20039;-74
2021/10/02 09:14:50;;;;;;;11.55;7.85;;;16.40;99.90;;;;;;5083611;28;20031;-74
2021/10/02 09:17:16;;;;;;;9.32;5.15;;;16.50;99.90;;;;;;5084891;28;20036;-74
2021/10/02 09:19:43;;;;;;;10.30;4.75;;;16.60;99.90;;;;;;5083740;28;20524;-74
2021/10/02 09:22:11;;;;;;;8.25;4.82;;;16.70;99.90;;;;;;5086489;28;20423;-74
2021/10/02 09:24:43;;;;;;;11.45;5.28;;;16.80;99.90;;;;;;5083564;28;20091;-74
2021/10/02 09:27:21;;;;;;;8.02;4.97;;;16.90;99.90;;;;;;5066809;28;20031;-74
2021/10/02 09:29:56;;;;;;;8.35;4.43;;;17.00;99.90;;;;;;5097720;27;20039;-74
2021/10/02 09:32:32;;;;;;;6.45;3.72;;;17.00;99.90;;;;;;5057298;28;20040;-74
2021/10/02 09:35:08;;;;;;;8.15;5.13;;;17.20;99.90;;;;;;5083789;28;20388;-74
2021/10/02 09:37:37;;;;;;;8.85;4.93;;;17.50;99.90;;;;;;5103021;28;20517;-74
2021/10/02 09:40:10;;;;;;;10.10;5.90;;;17.60;99.90;;;;;;5069406;28;20039;-74
2021/10/02 09:42:43;;;;;;;11.18;4.57;;;17.60;99.90;;;;;;5084338;28;20047;-74
2021/10/02 09:45:15;;;;;;;7.43;4.22;;;17.60;99.90;;;;;;5069712;28;20043;-75
2021/10/02 09:47:42;;;;;;;16.45;8.65;;;17.60;99.90;;;;;;5087179;28;20696;-75
2021/10/02 09:50:15;;;;;;;10.68;6.05;;;17.60;99.90;;;;;;5065437;28;20587;-75
2021/10/02 09:52:45;;;;;;;9.60;3.90;;;17.70;99.90;;;;;;5064896;27;20044;-75
2021/10/02 09:55:25;;;;;;;9.60;3.95;;;17.70;99.90;;;;;;5085136;27;20042;-74
2021/10/02 09:58:01;;;;;;;6.00;3.67;;;17.70;99.90;;;;;;5078950;28;20082;-75
2021/10/02 10:00:38;;;;;;;5.18;2.88;;;17.60;99.90;;;;;;5084998;27;20039;-75
2021/10/02 10:03:10;;;;;;;4.32;2.40;;;17.60;99.90;;;;;;5084886;28;20035;-74
2021/10/02 10:05:45;;;;;;;4.03;2.28;;;17.70;99.90;;;;;;5050039;27;20039;-74
2021/10/02 10:08:18;;;;;;;5.65;2.45;;;17.80;99.90;;;;;;5066592;27;20044;-74
2021/10/02 10:10:45;;;;;;;5.00;2.88;;;17.90;99.90;;;;;;5082753;28;20028;-74
2021/10/02 10:13:18;;;;;;;7.53;2.58;;;18.00;99.90;;;;;;5067841;28;20415;-75
2021/10/02 10:15:47;;;;;;;5.28;2.90;;;18.00;99.90;;;;;;5077231;27;20058;-74
2021/10/02 10:18:24;;;;;;;6.00;2.05;;;18.00;99.90;;;;;;5105816;27;20043;-74
2021/10/02 10:20:55;;;;;;;5.07;1.90;;;18.00;99.90;;;;;;5110579;27;20491;-74
2021/10/02 10:23:37;;;;;;;6.55;1.90;;;18.10;99.90;;;;;;5083948;27;20044;-75
2021/10/02 10:26:14;;;;;;;6.80;1.67;;;18.20;99.90;;;;;;5084921;27;20415;-74
2021/10/02 10:28:49;;;;;;;4.88;1.60;;;18.10;99.90;;;;;;5109267;27;20028;-74
2021/10/02 10:31:25;;;;;;;4.43;1.95;;;18.00;99.90;;;;;;5112722;27;20023;-75
2021/10/02 10:33:56;;;;;;;4.55;2.00;;;18.00;99.90;;;;;;5085958;27;20031;-74
2021/10/02 10:36:26;;;;;;;5.68;1.83;;;18.20;99.90;;;;;;5088570;27;20039;-74
2021/10/02 10:38:53;;;;;;;4.75;2.13;;;18.40;99.90;;;;;;5111434;27;20034;-74
2021/10/02 10:41:22;;;;;;;2.30;1.15;;;18.40;99.90;;;;;;5110833;27;20039;-74
2021/10/02 10:43:49;;;;;;;5.55;1.95;;;18.40;99.90;;;;;;5108861;27;20047;-74
2021/10/02 10:46:19;;;;;;;6.15;2.05;;;18.40;99.90;;;;;;5084011;27;20035;-74
2021/10/02 10:48:45;;;;;;;6.25;2.72;;;18.30;99.90;;;;;;5074099;28;20039;-74
2021/10/02 10:51:14;;;;;;;5.60;2.20;;;18.10;99.90;;;;;;5065611;28;20515;-74
2021/10/02 10:53:47;;;;;;;5.88;1.88;;;18.00;99.90;;;;;;5086881;27;20474;-74
2021/10/02 10:56:15;;;;;;;5.43;1.38;;;18.10;99.90;;;;;;5112776;27;20035;-74
2021/10/02 10:58:43;;;;;;;3.47;0.82;;;18.20;99.90;;;;;;5109632;27;20057;-73
2021/10/02 11:01:11;;;;;;;3.13;1.40;;;18.30;99.90;;;;;;5067302;28;20059;-74
2021/10/02 11:03:45;;;;;;;3.05;0.98;;;18.30;99.90;;;;;;5084708;27;20060;-74
2021/10/02 11:06:14;;;;;;;3.50;0.90;;;18.30;99.90;;;;;;5109021;27;20031;-73
2021/10/02 11:08:59;;;;;;;2.22;1.13;;;18.50;99.90;;;;;;5085124;28;20059;-73
2021/10/02 11:11:44;;;;;;;3.47;1.13;;;18.80;99.90;;;;;;5109791;28;20035;-73
2021/10/02 11:14:16;;;;;;;2.50;0.70;;;19.10;99.90;;;;;;5114516;28;20039;-73
2021/10/02 11:16:47;;;;;;;1.90;0.60;;;19.10;99.90;;;;;;5074756;28;20031;-73
2021/10/02 11:19:26;;;;;;;4.05;0.85;;;19.00;99.90;;;;;;5104875;28;20050;-73
2021/10/02 11:22:47;;;;;;;2.85;0.70;;;18.80;99.90;;;;;;5085774;28;20031;-73
2021/10/02 11:25:19;;;;;;;1.50;0.50;;;18.70;99.90;;;;;;5040534;28;20616;-73
2021/10/02 11:27:48;;;;;;;2.05;0.50;;;18.50;99.90;;;;;;5072183;28;20047;-73
2021/10/02 11:30:17;;;;;;;2.95;0.60;;;18.50;99.90;;;;;;5068058;28;21354;-73
2021/10/02 11:32:44;;;;;;;1.95;0.45;;;18.40;99.90;;;;;;5086988;27;20031;-73
2021/10/02 11:35:20;;;;;;;2.13;0.77;;;18.40;99.90;;;;;;5113234;27;20027;-73
2021/10/02 11:37:49;;;;;;;1.60;0.50;;;18.40;99.90;;;;;;5107855;27;20040;-73
2021/10/02 11:40:34;;;;;;;2.38;0.50;;;18.20;99.90;;;;;;5109579;27;20039;-73
2021/10/02 11:43:13;;;;;;;2.17;0.60;;;18.00;99.90;;;;;;5086263;27;20047;-73
2021/10/02 11:45:45;;;;;;;1.88;0.70;;;17.90;99.90;;;;;;5078452;27;20294;-72
2021/10/02 11:48:12;;;;;;;;;;;18.00;99.90;;;;;;5087482;27;20027;-73
2021/10/02 11:50:41;;;;;;;2.20;0.50;;;18.20;99.90;;;;;;5090647;27;20327;-73
2021/10/02 11:53:10;;;;;;;1.77;0.55;;;18.40;99.90;;;;;;5114034;27;20028;-73
2021/10/02 11:55:43;;;;;;;2.10;0.40;;;18.60;99.90;;;;;;5072182;27;20232;-73
2021/10/02 11:58:12;;;;;;;2.05;0.70;;;19.00;99.90;;;;;;5069194;28;20777;-73
2021/10/02 12:00:47;;;;;;;1.63;0.60;;;19.30;99.90;;;;;;5070320;28;20035;-73
2021/10/02 12:03:28;;;;;;;1.58;0.60;;;19.60;99.90;;;;;;5111236;27;20032;-73
2021/10/02 12:05:57;;;;;;;1.77;0.60;;;19.60;99.90;;;;;;5112597;27;20036;-73
2021/10/02 12:08:24;;;;;;;2.38;0.60;;;19.50;99.90;;;;;;5087896;27;20039;-73
2021/10/02 12:11:02;;;;;;;1.23;0.50;;;19.30;99.90;;;;;;5111299;27;20034;-73
2021/10/02 12:13:50;;;;;;;1.55;0.55;;;19.20;99.90;;;;;;5056756;27;20051;-73
2021/10/02 12:16:21;;;;;;;3.45;0.60;;;19.10;99.90;;;;;;5117046;27;20388;-73
2021/10/02 12:18:57;;;;;;;2.10;0.60;;;19.20;99.90;;;;;;5087440;27;20039;-73
2021/10/02 12:21:23;;;;;;;1.25;0.50;;;19.40;99.90;;;;;;5090956;27;20054;-74
2021/10/02 12:24:05;;;;;;;1.20;0.70;;;19.50;99.90;;;;;;5056172;27;20035;-75
2021/10/02 12:26:37;;;;;;;2.08;0.70;;;19.90;99.90;;;;;;5112183;27;20390;-74
2021/10/02 12:29:04;;;;;;;;;;;20.20;99.90;;;;;;5070562;27;20380;-75
2021/10/02 12:31:45;;;;;;;2.80;0.68;;;21.00;99.90;;;;;;5113963;27;20052;-75
2021/10/02 12:34:33;;;;;;;4.35;0.98;;;21.50;99.10;;;;;;5109324;27;20043;-75
2021/10/02 12:37:04;;;;;;;3.40;1.00;;;21.50;97.80;;;;;;5086876;27;20027;-75
2021/10/02 12:39:34;;;;;;;1.88;0.55;;;21.10;97.60;;;;;;5107828;27;20035;-75
2021/10/02 12:42:01;;;;;;;3.78;1.92;;;20.70;98.00;;;;;;5107944;27;20035;-77
2021/10/02 12:44:31;;;;;;;8.48;6.53;;;20.40;98.50;;;;;;5115177;27;20031;-74
2021/10/02 12:46:59;;;;;;;3.42;1.33;;;20.20;98.80;;;;;;5087816;27;20050;-75
2021/10/02 12:49:26;;;;;;;1.60;0.60;;;20.00;98.70;;;;;;5084887;27;20040;-75
2021/10/02 12:51:54;;;;;;;1.88;0.50;;;19.80;98.80;;;;;;5085434;28;20615;-74
2021/10/02 12:54:23;;;;;;;2.67;0.50;;;19.60;99.10;;;;;;5066603;28;20040;-74
2021/10/02 12:57:01;;;;;;;1.63;0.60;;;19.50;99.50;;;;;;5089368;28;20575;-74
2021/10/02 12:59:43;;;;;;;1.30;0.50;;;19.40;99.70;;;;;;5082440;28;20040;-74
2021/10/02 13:02:10;;;;;;;;;;;19.20;99.40;;;;;;5066484;28;20051;-75
2021/10/02 13:04:36;;;;;;;1.00;0.43;;;18.90;99.70;;;;;;5083048;28;19916;-74
2021/10/02 13:07:04;;;;;;;0.75;0.30;;;18.70;99.90;;;;;;5082643;28;20048;-75
2021/10/02 13:09:50;;;;;;;1.35;0.40;;;18.50;99.90;;;;;;5081426;28;20035;-75
2021/10/02 13:12:16;;;;;;;1.25;0.50;;;18.40;99.90;;;;;;5091473;28;20043;-75
2021/10/02 13:14:46;;;;;;;1.60;0.47;;;18.30;99.90;;;;;;5078884;28;20028;-75
2021/10/02 13:17:13;;;;;;;2.10;0.43;;;18.40;99.90;;;;;;5065014;28;20488;-75
2021/10/02 13:19:40;;;;;;;1.15;0.40;;;18.50;99.90;;;;;;5046410;28;20055;-75
2021/10/02 13:22:20;;;;;;;2.40;0.32;;;18.70;99.90;;;;;;5065163;28;20035;-75
2021/10/02 13:25:08;;;;;;;1.67;0.50;;;18.90;99.90;;;;;;5078903;28;20048;-75
2021/10/02 13:27:38;;;;;;;3.70;0.60;;;19.10;99.90;;;;;;5091240;28;20027;-76
2021/10/02 13:30:11;;;;;;;0.88;0.50;;;19.00;99.90;;;;;;5062225;28;20396;-76
2021/10/02 13:32:38;;;;;;;1.58;0.40;;;19.00;99.90;;;;;;5081841;28;20035;-76
2021/10/02 13:35:11;;;;;;;1.13;0.45;;;18.80;99.90;;;;;;5086518;28;20024;-76
2021/10/02 13:37:44;;;;;;;;;;;18.70;99.90;;;;;;5053968;28;20059;-75
2021/10/02 13:40:18;;;;;;;;;;;18.60;99.90;;;;;;5078234;28;19923;-76
2021/10/02 13:42:48;;;;;;;0.75;0.30;;;18.60;99.90;;;;;;5086733;28;19916;-76
2021/10/02 13:45:15;;;;;;;1.52;0.30;;;18.70;99.90;;;;;;5090760;28;20034;-75
2021/10/02 13:48:00;;;;;;;0.55;0.35;;;18.80;99.90;;;;;;5083544;28;20035;-75